Nearby METAR Reports

 

YAMB - Amberley, Australia
Distance from station: NW 41km
Updated: 24/05/2022 00:30
Mostly Cloudy
Mostly Cloudy
 Wind from S
Wind: S 7 km/h
Temperature: 16°C
Dew Point: 14°C
Humidity: 88%
Barometer: 1022 hPa
Clouds: Mostly Cloudy
Visibility: 10 km
Cloud details: Partly Cloudy 1006 m
Mostly Cloudy 1219 m
Mostly Cloudy 1524 m
2022/05/23 14:30 YAMB 231430Z AUTO 19004KT 9999 // SCT033 BKN040 BKN050 16/14 Q1022
YBBN - Brisbane Intl Ar, Australia
Distance from station: N 55km
Updated: 24/05/2022 00:30
Nearby showers, Mostly cloudy
Nearby showers, Mostly cloudy
 Wind from SSW
Wind: SSW 13 km/h
Temperature: 17°C
Dew Point: 15°C
Humidity: 88%
Barometer: 1021 hPa
Summary: Nearby Showers
Clouds: Mostly Cloudy
Visibility: 10 km
Cloud details: Few Clouds 975 m
Partly Cloudy 2438 m
Mostly Cloudy 4877 m
2022/05/23 14:30 YBBN 231430Z 20007KT 9999 VCSH FEW032 SCT080 BKN160 17/15 Q1021
 
YBCG - Coolangatta Aws, Australia
Distance from station: SE 57km
Updated: 24/05/2022 00:30
Mostly Cloudy
Mostly Cloudy
 Wind from SSW
Wind: SSW 17 km/h
Temperature: 16°C
Dew Point: 15°C
Humidity: 94%
Barometer: 1022 hPa
Clouds: Mostly Cloudy
Visibility: 10 km
Cloud details: Partly Cloudy 1859 m
Mostly Cloudy 2225 m
Mostly Cloudy 2530 m
2022/05/23 14:30 YBCG 231430Z AUTO 21009KT 9999 // SCT061 BKN073 BKN083 16/15 Q1022
YLIS - Lismore Arpt, Australia
Distance from station: SSE 110km
Updated: 07/05/2022 20:00
NOT Current

 Wind from varies
Wind: varies 0 km/h
2022/05/07 10:00 YLIS 071000Z AUTO /////KT //// // ////// ///// Q////
 
YCAS - Casino Airport, Australia
Distance from station: S 113km
Updated: 16/05/2022 16:30
NOT Current

 Wind from S
Wind: S 9 km/h
Temperature: 22°C
Dew Point: 21°C
Humidity: 94%
Barometer: 1013 hPa
2022/05/16 06:30 YCAS 160630Z AUTO 18005KT 140V260 //// // ////// 22/21 Q1013 RETS
YBNA - Ballina Byron G., Australia
Distance from station: SSE 119km
Updated: 12/05/2022 10:00
NOT Current
Mostly Cloudy
Mostly Cloudy
 Wind from ENE
Wind: ENE 28 km/h
Temperature: 23°C
Dew Point: 17°C
Humidity: 69%
Barometer: 1020 hPa
Clouds: Mostly Cloudy
Visibility: 10 km
Cloud details: Partly Cloudy 945 m
Mostly Cloudy 1158 m
Mostly Cloudy 1494 m
2022/05/12 00:00 YBNA 120000Z AUTO 07015KT 9999 // SCT031 BKN038 BKN049 23/17 Q1020
 
YBOK - Oakey (army/Civ), Australia
Distance from station: WNW 139km
Updated: 12/05/2022 10:00
NOT Current
Light rain, Overcast
Light rain, Overcast
 Wind from E
Wind: E 20 km/h
Temperature: 19°C
Dew Point: 18°C
Humidity: 94%
Barometer: 1018 hPa
Summary: Light Rain
Clouds: Overcast
Visibility: 3 km
Cloud details: Mostly Cloudy 244 m
Overcast 671 m
2022/05/12 00:00 YBOK 120000Z 09011KT 3000 -RA BKN008 OVC022 19/18 Q1018